createdAt,value
2018-06-18T00:04:04.859Z,82.18
2018-06-18T00:08:59.689Z,82.05
2018-06-18T00:13:54.609Z,81.94
2018-06-18T00:18:49.378Z,81.51
2018-06-18T00:23:44.108Z,81.78
2018-06-18T00:28:39.173Z,80.84
2018-06-18T00:33:33.946Z,81.20
2018-06-18T00:38:29.069Z,81.97
2018-06-18T00:43:23.815Z,81.40
2018-06-18T00:48:18.583Z,81.29
2018-06-18T00:53:13.335Z,81.04
2018-06-18T00:58:08.088Z,81.37
2018-06-18T01:03:02.851Z,81.63
2018-06-18T01:07:57.596Z,82.92
2018-06-18T01:12:52.327Z,81.92
2018-06-18T01:17:47.087Z,82.01
2018-06-18T01:22:46.150Z,82.22
2018-06-18T01:27:40.895Z,81.83
2018-06-18T01:32:35.631Z,81.66
2018-06-18T01:37:30.069Z,81.66
2018-06-18T01:42:24.784Z,82.38
2018-06-18T01:47:19.623Z,82.30
2018-06-18T01:52:14.392Z,81.95
2018-06-18T01:57:09.206Z,83.39
2018-06-18T02:02:04.123Z,82.59
2018-06-18T02:06:58.886Z,83.05
2018-06-18T02:11:53.688Z,82.64
2018-06-18T02:16:48.447Z,82.76
2018-06-18T02:21:43.243Z,83.09
2018-06-18T02:26:37.973Z,82.82
2018-06-18T02:31:37.855Z,82.32
2018-06-18T02:36:37.619Z,83.08
2018-06-18T02:41:32.327Z,83.57
2018-06-18T02:46:26.995Z,83.24
2018-06-18T02:51:21.723Z,84.16
2018-06-18T02:56:16.786Z,84.52
2018-06-18T03:01:11.512Z,83.61
2018-06-18T03:06:06.292Z,83.38
2018-06-18T03:11:00.951Z,82.77
2018-06-18T03:15:55.693Z,83.94
2018-06-18T03:20:55.399Z,83.76
2018-06-18T03:25:55.167Z,83.76
2018-06-18T03:30:49.823Z,84.79
2018-06-18T03:35:44.530Z,84.79
2018-06-18T03:40:39.144Z,84.61
2018-06-18T03:45:34.806Z,84.65
2018-06-18T03:50:29.699Z,84.03
2018-06-18T03:55:37.185Z,83.65
2018-06-18T04:00:36.034Z,83.43
2018-06-18T04:05:36.108Z,83.97
2018-06-18T04:10:40.714Z,83.24
2018-06-18T04:15:35.402Z,83.83
2018-06-18T04:20:43.388Z,83.81
2018-06-18T04:25:38.037Z,83.99
2018-06-18T04:30:32.827Z,83.16
2018-06-18T04:35:27.452Z,83.42
2018-06-18T04:40:22.108Z,82.05
2018-06-18T04:45:21.922Z,81.87
2018-06-18T04:50:21.679Z,82.47
2018-06-18T04:55:16.476Z,82.02
2018-06-18T05:00:23.890Z,80.81
2018-06-18T05:05:18.633Z,81.28
2018-06-18T05:10:23.781Z,81.62
2018-06-18T05:15:19.569Z,79.87
2018-06-18T05:20:14.426Z,79.80
2018-06-18T05:25:09.111Z,80.26
2018-06-18T05:30:08.566Z,76.80
2018-06-18T05:35:03.299Z,79.36
2018-06-18T05:39:57.972Z,79.19
2018-06-18T05:44:52.692Z,80.81
2018-06-18T05:49:47.388Z,79.52
2018-06-18T05:54:42.092Z,79.36
2018-06-18T05:59:36.851Z,77.42
2018-06-18T06:04:31.549Z,78.25
2018-06-18T06:09:26.234Z,75.79
2018-06-18T06:14:20.927Z,74.71
2018-06-18T06:19:15.807Z,72.86
2018-06-18T06:24:10.399Z,75.85
2018-06-18T06:29:05.083Z,76.56
2018-06-18T06:33:59.701Z,72.44
2018-06-18T06:38:54.343Z,72.67
2018-06-18T06:43:48.931Z,68.94
2018-06-18T06:48:43.628Z,68.19
2018-06-18T06:53:38.197Z,69.21
2018-06-18T06:58:33.078Z,64.05
2018-06-18T07:03:27.695Z,66.50
2018-06-18T07:08:22.268Z,67.56
2018-06-18T07:13:16.877Z,59.43
2018-06-18T07:18:11.358Z,58.50
2018-06-18T07:23:05.980Z,64.55
2018-06-18T07:28:00.563Z,63.01
2018-06-18T07:32:55.200Z,59.61
2018-06-18T07:37:49.793Z,55.95
2018-06-18T07:42:44.034Z,59.90
2018-06-18T07:47:38.570Z,59.27
2018-06-18T07:52:33.149Z,55.53
2018-06-18T07:57:27.754Z,59.07
2018-06-18T08:02:22.387Z,61.05
2018-06-18T08:07:16.981Z,62.47
2018-06-18T08:12:11.545Z,58.73
2018-06-18T08:17:06.213Z,58.42
2018-06-18T08:22:00.905Z,58.99
2018-06-18T08:26:55.557Z,48.79
2018-06-18T08:31:50.435Z,50.13
2018-06-18T08:36:45.029Z,49.77
2018-06-18T08:41:39.834Z,48.77
2018-06-18T08:46:34.427Z,50.29
2018-06-18T08:51:34.127Z,52.26
2018-06-18T08:56:33.931Z,54.03
2018-06-18T09:01:34.858Z,54.61
2018-06-18T09:06:29.182Z,55.89
2018-06-18T09:11:23.790Z,55.02
2018-06-18T09:16:18.350Z,57.05
2018-06-18T09:21:12.917Z,56.75
2018-06-18T09:26:07.538Z,52.34
2018-06-18T09:31:02.113Z,51.70
2018-06-18T09:35:56.344Z,47.47
2018-06-18T09:40:50.948Z,48.02
2018-06-18T09:45:45.540Z,47.72
2018-06-18T09:50:45.375Z,49.28
2018-06-18T09:55:45.097Z,47.92
2018-06-18T10:01:02.300Z,47.37
2018-06-18T10:05:56.879Z,47.42
2018-06-18T10:10:51.441Z,48.42
2018-06-18T10:15:46.008Z,49.39
2018-06-18T10:20:40.543Z,46.32
2018-06-18T10:25:35.280Z,45.51
2018-06-18T10:30:29.819Z,45.56
2018-06-18T10:35:29.575Z,46.41
2018-06-18T10:40:29.264Z,47.72
2018-06-18T10:45:23.786Z,48.46
2018-06-18T10:50:18.362Z,46.79
2018-06-18T10:55:12.928Z,47.24
2018-06-18T11:00:10.579Z,44.53
2018-06-18T11:05:05.254Z,46.98
2018-06-18T11:09:59.789Z,44.56
2018-06-18T11:14:54.391Z,44.51
2018-06-18T11:19:54.025Z,47.90
2018-06-18T11:24:53.690Z,45.49
2018-06-18T11:29:48.235Z,42.13
2018-06-18T11:34:42.810Z,42.97
2018-06-18T11:39:37.440Z,41.05
2018-06-18T11:44:31.905Z,41.89
2018-06-18T11:49:26.529Z,44.69
2018-06-18T11:54:21.173Z,45.04
2018-06-18T11:59:20.891Z,44.10
2018-06-18T12:04:20.558Z,40.03
2018-06-18T12:09:20.066Z,41.68
2018-06-18T12:14:15.105Z,38.74
2018-06-18T12:19:09.684Z,38.60
2018-06-18T12:24:04.255Z,45.25
2018-06-18T12:28:58.832Z,43.82
2018-06-18T12:33:53.274Z,41.96
2018-06-18T12:38:47.847Z,40.73
2018-06-18T12:43:43.763Z,42.25
2018-06-18T12:48:43.425Z,43.93
2018-06-18T12:53:43.143Z,40.63
2018-06-18T12:58:37.822Z,42.24
2018-06-18T13:03:33.070Z,43.54
2018-06-18T13:08:27.606Z,43.80
2018-06-18T13:13:22.155Z,44.34
2018-06-18T13:18:16.738Z,45.05
2018-06-18T13:23:11.312Z,43.06
2018-06-18T13:28:10.983Z,45.50
2018-06-18T13:33:05.568Z,45.79
2018-06-18T13:38:05.527Z,44.65
2018-06-18T13:43:05.533Z,44.38
2018-06-18T13:48:05.298Z,42.58
2018-06-18T13:53:00.811Z,42.41
2018-06-18T13:57:55.365Z,44.07
2018-06-18T14:02:49.970Z,44.15
2018-06-18T14:07:44.925Z,44.74
2018-06-18T14:12:39.487Z,48.01
2018-06-18T14:17:34.141Z,44.98
2018-06-18T14:22:28.751Z,45.99
2018-06-18T14:27:23.365Z,46.44
2018-06-18T14:32:23.047Z,45.11
2018-06-18T14:37:22.768Z,45.61
2018-06-18T14:42:17.868Z,47.26
2018-06-18T14:47:12.345Z,45.01
2018-06-18T14:52:07.049Z,44.90
2018-06-18T14:57:03.714Z,44.95
2018-06-18T15:01:58.311Z,46.29
2018-06-18T15:06:52.834Z,47.42
2018-06-18T15:11:47.431Z,44.91
2018-06-18T15:16:42.047Z,43.77
2018-06-18T15:21:42.086Z,44.85
2018-06-18T15:26:36.629Z,47.23
2018-06-18T15:31:31.194Z,47.85
2018-06-18T15:36:25.754Z,45.13
2018-06-18T15:41:20.295Z,46.95
2018-06-18T15:46:14.888Z,48.17
2018-06-18T15:51:09.447Z,44.83
2018-06-18T15:56:04.062Z,43.62
2018-06-18T16:00:58.733Z,45.76
2018-06-18T16:05:53.391Z,46.51
2018-06-18T16:10:48.002Z,45.02
2018-06-18T16:15:42.658Z,44.39
2018-06-18T16:20:37.218Z,47.11
2018-06-18T16:25:31.829Z,46.13
2018-06-18T16:30:26.391Z,46.69
2018-06-18T16:35:20.985Z,46.97
2018-06-18T16:40:15.602Z,45.76
2018-06-18T16:45:10.186Z,48.14
2018-06-18T16:50:04.850Z,47.27
2018-06-18T16:54:59.438Z,43.97
2018-06-18T16:59:54.048Z,47.42
2018-06-18T17:04:48.607Z,47.74
2018-06-18T17:09:43.186Z,47.15
2018-06-18T17:14:37.711Z,47.32
2018-06-18T17:19:32.293Z,47.61
2018-06-18T17:24:26.851Z,49.79
2018-06-18T17:29:21.422Z,47.52
2018-06-18T17:34:16.207Z,45.92
2018-06-18T17:39:12.416Z,48.47
2018-06-18T17:44:06.983Z,47.14
2018-06-18T17:49:01.623Z,49.19
2018-06-18T17:53:56.240Z,51.01
2018-06-18T17:58:50.829Z,48.13
2018-06-18T18:03:45.427Z,53.14
2018-06-18T18:08:40.038Z,53.40
2018-06-18T18:13:34.669Z,54.13
2018-06-18T18:18:29.191Z,52.35
2018-06-18T18:23:23.839Z,54.21
2018-06-18T18:28:18.380Z,53.10
2018-06-18T18:33:12.958Z,54.86
2018-06-18T18:38:07.567Z,54.98
2018-06-18T18:43:02.152Z,56.11
2018-06-18T18:47:56.755Z,56.06
2018-06-18T18:52:51.443Z,57.03
2018-06-18T18:58:02.528Z,57.14
2018-06-18T19:02:57.204Z,58.33
2018-06-18T19:07:52.016Z,60.61
2018-06-18T19:12:46.608Z,61.54
2018-06-18T19:17:40.854Z,62.62
2018-06-18T19:22:35.440Z,62.94
2018-06-18T19:27:30.012Z,63.77
2018-06-18T19:32:24.607Z,63.76
2018-06-18T19:37:19.190Z,64.44
2018-06-18T19:42:14.480Z,64.20
2018-06-18T19:47:23.676Z,65.73
2018-06-18T19:52:18.243Z,65.70
2018-06-18T19:57:12.821Z,66.40
2018-06-18T20:02:07.277Z,66.01
2018-06-18T20:07:01.926Z,67.22
2018-06-18T20:11:56.494Z,67.64
2018-06-18T20:16:51.072Z,67.66
2018-06-18T20:21:46.187Z,68.10
2018-06-18T20:26:40.847Z,69.04
2018-06-18T20:31:35.463Z,68.56
2018-06-18T20:36:30.067Z,68.87
2018-06-18T20:41:25.231Z,69.95
2018-06-18T20:46:20.037Z,69.23
2018-06-18T20:51:14.646Z,69.45
2018-06-18T20:56:09.248Z,67.96
2018-06-18T21:01:03.947Z,69.20
2018-06-18T21:05:58.520Z,68.94
2018-06-18T21:10:53.259Z,69.09
2018-06-18T21:15:47.915Z,69.28
2018-06-18T21:20:42.635Z,68.92
2018-06-18T21:25:37.268Z,67.67
2018-06-18T21:30:31.867Z,68.72
2018-06-18T21:35:26.431Z,68.84
2018-06-18T21:40:21.074Z,68.88
2018-06-18T21:45:23.192Z,67.54
2018-06-18T21:50:18.266Z,68.27
2018-06-18T21:55:13.185Z,68.78
2018-06-18T22:00:17.348Z,67.39
2018-06-18T22:05:12.043Z,68.65
2018-06-18T22:10:07.775Z,69.35
2018-06-18T22:15:02.482Z,68.91
2018-06-18T22:19:57.128Z,69.52
2018-06-18T22:24:51.839Z,69.56
2018-06-18T22:29:46.529Z,69.51
2018-06-18T22:34:41.201Z,69.68
2018-06-18T22:39:35.795Z,70.10
2018-06-18T22:44:30.532Z,67.81
2018-06-18T22:49:25.106Z,68.85
2018-06-18T22:54:19.754Z,68.86
2018-06-18T22:59:14.423Z,69.45
2018-06-18T23:04:09.058Z,70.04
2018-06-18T23:09:10.006Z,71.21
2018-06-18T23:14:07.362Z,72.26
2018-06-18T23:19:02.096Z,70.73
2018-06-18T23:23:56.719Z,70.88
2018-06-18T23:28:56.067Z,71.25
2018-06-18T23:33:50.439Z,71.68
2018-06-18T23:38:45.150Z,73.55
2018-06-18T23:43:40.643Z,72.84
2018-06-18T23:48:35.318Z,72.56
2018-06-18T23:53:29.917Z,72.27
2018-06-18T23:58:24.544Z,72.11
